Time;durP1;ratioP1;P1;durP2;ratioP2;P2;SDS_P1;SDS_P2;PMS_P1;PMS_P2;Temp;Humidity;BMP_temperature;BMP_pressure;BME280_temperature;BME280_humidity;BME280_pressure;Samples;Min_cycle;Max_cycle;Signal;HPM_P1;HPM_P2
2023/11/30 00:00:20;;;;;;;0.40;0.40;;;0.20;92.90;;;;;;5114138;28;20040;-74
2023/11/30 00:02:46;;;;;;;0.50;0.50;;;0.10;92.90;;;;;;5119060;27;20043;-72
2023/11/30 00:05:12;;;;;;;0.95;0.68;;;0.20;92.90;;;;;;5100344;27;20493;-74
2023/11/30 00:07:37;;;;;;;0.43;0.40;;;0.10;92.80;;;;;;5100319;28;20038;-72
2023/11/30 00:10:03;;;;;;;0.80;0.60;;;0.10;92.80;;;;;;5117616;28;20035;-73
2023/11/30 00:12:29;;;;;;;0.63;0.55;;;0.10;92.90;;;;;;5100291;28;20042;-73
2023/11/30 00:14:54;;;;;;;0.70;0.57;;;0.20;92.90;;;;;;5136083;27;20051;-72
2023/11/30 00:17:20;;;;;;;0.70;0.50;;;0.10;92.90;;;;;;5095528;28;20046;-75
2023/11/30 00:19:46;;;;;;;1.17;0.68;;;0.10;92.80;;;;;;5097340;28;20039;-73
2023/11/30 00:22:11;;;;;;;0.50;0.40;;;0.10;92.80;;;;;;5079569;28;20051;-73
2023/11/30 00:24:37;;;;;;;0.95;0.63;;;0.10;92.90;;;;;;5113377;28;20036;-73
2023/11/30 00:27:04;;;;;;;0.93;0.55;;;0.10;92.90;;;;;;5113605;28;20044;-73
2023/11/30 00:29:29;;;;;;;0.98;0.65;;;0.10;92.90;;;;;;5113363;28;20449;-73
2023/11/30 00:31:55;;;;;;;0.68;0.60;;;0.10;93.00;;;;;;5113372;28;20482;-72
2023/11/30 00:34:21;;;;;;;1.45;0.80;;;0.10;92.90;;;;;;5096749;28;20128;-72
2023/11/30 00:36:47;;;;;;;0.93;0.70;;;0.10;92.90;;;;;;5054800;28;20492;-73
2023/11/30 00:39:13;;;;;;;0.40;0.40;;;0.10;92.90;;;;;;5038428;28;20167;-74
2023/11/30 00:41:38;;;;;;;0.95;0.60;;;0.10;92.80;;;;;;5055086;28;20044;-73
2023/11/30 00:44:04;;;;;;;1.35;0.70;;;0.10;92.90;;;;;;5039020;28;20046;-73
2023/11/30 00:46:30;;;;;;;1.00;0.60;;;0.00;92.80;;;;;;5054997;28;20440;-72
2023/11/30 00:48:56;;;;;;;0.60;0.50;;;0.00;92.80;;;;;;5038247;28;20060;-72
2023/11/30 00:51:22;;;;;;;1.25;0.75;;;0.10;92.90;;;;;;5071822;28;20510;-73
2023/11/30 00:53:48;;;;;;;0.50;0.50;;;0.00;92.90;;;;;;5038372;28;20040;-73
2023/11/30 00:56:13;;;;;;;1.90;0.70;;;0.00;92.90;;;;;;5054979;28;20048;-72
2023/11/30 00:58:39;;;;;;;1.13;0.75;;;0.00;92.90;;;;;;5072311;28;20048;-73
2023/11/30 01:01:05;;;;;;;1.20;0.68;;;0.00;92.90;;;;;;5071793;28;20044;-74
2023/11/30 01:03:31;;;;;;;1.77;0.73;;;0.00;92.90;;;;;;5054703;28;20501;-73
2023/11/30 01:05:57;;;;;;;1.25;0.73;;;0.00;92.90;;;;;;5037709;28;20029;-72
2023/11/30 01:08:23;;;;;;;0.60;0.50;;;0.00;92.90;;;;;;5079892;28;20043;-72
2023/11/30 01:10:48;;;;;;;0.93;0.77;;;0.00;92.90;;;;;;5078970;28;20039;-73
2023/11/30 01:13:14;;;;;;;1.35;0.70;;;0.00;92.90;;;;;;5131785;27;20390;-73
2023/11/30 01:15:40;;;;;;;0.52;0.50;;;-0.10;92.90;;;;;;5099139;27;20401;-73
2023/11/30 01:18:06;;;;;;;1.17;0.88;;;0.00;92.90;;;;;;5082237;27;20043;-74
2023/11/30 01:20:32;;;;;;;0.73;0.65;;;-0.10;92.90;;;;;;5112926;28;20043;-74
2023/11/30 01:22:58;;;;;;;0.55;0.50;;;-0.10;92.90;;;;;;5130587;27;20043;-74
2023/11/30 01:25:24;;;;;;;0.60;0.50;;;0.00;92.90;;;;;;5134891;27;20466;-73
2023/11/30 01:27:51;;;;;;;1.75;0.50;;;0.00;92.90;;;;;;5116209;27;20038;-73
2023/11/30 01:30:18;;;;;;;1.25;0.55;;;0.00;92.90;;;;;;5115399;27;20039;-73
2023/11/30 01:32:43;;;;;;;0.68;0.57;;;-0.10;92.80;;;;;;5115712;28;20104;-72
2023/11/30 01:35:09;;;;;;;0.80;0.60;;;-0.10;92.80;;;;;;5113585;28;20043;-72
2023/11/30 01:37:34;;;;;;;1.85;0.65;;;0.00;92.90;;;;;;5131352;27;20135;-73
2023/11/30 01:40:00;;;;;;;0.80;0.60;;;-0.10;92.90;;;;;;5098588;27;20122;-73
2023/11/30 01:42:28;;;;;;;0.88;0.65;;;-0.10;92.90;;;;;;5115795;27;20398;-72
2023/11/30 01:44:53;;;;;;;1.25;0.70;;;-0.10;92.90;;;;;;5098902;27;20043;-72
2023/11/30 01:47:19;;;;;;;0.95;0.55;;;-0.20;92.90;;;;;;5098643;28;20130;-73
2023/11/30 01:49:45;;;;;;;0.80;0.50;;;-0.20;92.90;;;;;;5115711;27;20039;-72
2023/11/30 01:52:11;;;;;;;1.00;0.65;;;-0.10;93.00;;;;;;5115426;28;20043;-72
2023/11/30 01:54:37;;;;;;;0.95;0.65;;;-0.20;92.90;;;;;;5134124;27;20541;-73
2023/11/30 01:57:04;;;;;;;0.70;0.40;;;-0.10;92.90;;;;;;5115562;27;20038;-73
2023/11/30 01:59:30;;;;;;;1.08;0.60;;;-0.10;92.90;;;;;;5133876;27;20043;-72
2023/11/30 02:01:57;;;;;;;0.80;0.60;;;0.00;92.90;;;;;;5115558;27;20049;-73
2023/11/30 02:04:27;;;;;;;1.13;0.68;;;-0.10;92.80;;;;;;5133729;27;20465;-74
2023/11/30 02:06:53;;;;;;;0.85;0.47;;;0.10;92.90;;;;;;5133813;27;20087;-72
2023/11/30 02:09:19;;;;;;;1.00;0.77;;;0.00;92.80;;;;;;5098606;27;20046;-72
2023/11/30 02:11:45;;;;;;;0.70;0.60;;;0.00;92.80;;;;;;5098257;28;20413;-73
2023/11/30 02:14:11;;;;;;;0.68;0.50;;;0.00;92.80;;;;;;5114974;27;20108;-74
2023/11/30 02:16:36;;;;;;;0.63;0.60;;;0.00;92.80;;;;;;5133874;27;20498;-73
2023/11/30 02:19:02;;;;;;;0.60;0.50;;;0.00;92.80;;;;;;5098089;28;20133;-73
2023/11/30 02:21:28;;;;;;;1.13;0.70;;;-0.10;92.70;;;;;;5115119;28;20455;-73
2023/11/30 02:23:54;;;;;;;0.95;0.60;;;0.00;92.80;;;;;;5133470;27;20096;-73
2023/11/30 02:26:19;;;;;;;0.68;0.55;;;0.00;92.80;;;;;;5115051;27;20035;-73
2023/11/30 02:28:45;;;;;;;0.55;0.50;;;0.00;92.80;;;;;;5114778;28;20439;-74
2023/11/30 02:31:11;;;;;;;0.88;0.55;;;0.00;92.80;;;;;;5133747;27;20074;-73
2023/11/30 02:33:36;;;;;;;0.60;0.50;;;-0.10;92.80;;;;;;5115493;27;20055;-73
2023/11/30 02:36:03;;;;;;;0.40;0.40;;;0.00;92.80;;;;;;5133728;27;20039;-73
2023/11/30 02:38:28;;;;;;;0.50;0.50;;;0.00;92.80;;;;;;5115047;27;20045;-73
2023/11/30 02:40:54;;;;;;;0.40;0.40;;;0.00;92.80;;;;;;5132328;27;20126;-73
2023/11/30 02:43:20;;;;;;;0.30;0.30;;;0.00;92.80;;;;;;5111817;28;20039;-73
2023/11/30 02:45:46;;;;;;;0.98;0.40;;;0.00;92.80;;;;;;5126503;27;20433;-73
2023/11/30 02:48:11;;;;;;;0.75;0.50;;;0.00;92.80;;;;;;5114971;28;20055;-75
2023/11/30 02:50:37;;;;;;;0.45;0.45;;;0.10;92.80;;;;;;5114703;28;20040;-73
2023/11/30 02:53:03;;;;;;;0.43;0.43;;;0.10;92.80;;;;;;5114994;27;20042;-74
2023/11/30 02:55:28;;;;;;;0.63;0.55;;;0.10;92.80;;;;;;5115216;27;20088;-74
2023/11/30 02:57:54;;;;;;;0.70;0.50;;;0.20;92.80;;;;;;5132967;27;20402;-73
2023/11/30 03:00:20;;;;;;;1.30;0.60;;;0.20;92.80;;;;;;5115196;27;20046;-74
2023/11/30 03:02:46;;;;;;;0.52;0.47;;;0.20;92.80;;;;;;5080561;27;20042;-74
2023/11/30 03:05:12;;;;;;;0.60;0.60;;;0.20;92.80;;;;;;5094075;28;20035;-73
2023/11/30 03:07:38;;;;;;;0.65;0.65;;;0.30;92.70;;;;;;5111033;28;20491;-73
2023/11/30 03:10:04;;;;;;;0.88;0.55;;;0.30;92.70;;;;;;5112412;28;20024;-74
2023/11/30 03:12:29;;;;;;;0.70;0.50;;;0.40;92.70;;;;;;5093773;28;20097;-74
2023/11/30 03:14:55;;;;;;;1.00;0.57;;;0.30;92.70;;;;;;5111375;28;20032;-74
2023/11/30 03:17:21;;;;;;;0.95;0.80;;;0.40;92.70;;;;;;5112088;28;20475;-73
2023/11/30 03:19:48;;;;;;;0.55;0.45;;;0.40;92.70;;;;;;5110903;28;20449;-73
2023/11/30 03:22:13;;;;;;;1.02;0.70;;;0.40;92.70;;;;;;5112085;28;20395;-74
2023/11/30 03:24:39;;;;;;;2.45;0.90;;;0.50;92.70;;;;;;5110719;28;20051;-73
2023/11/30 03:27:05;;;;;;;1.23;0.60;;;0.50;92.60;;;;;;5093724;28;20122;-73
2023/11/30 03:29:31;;;;;;;0.47;0.47;;;0.50;92.60;;;;;;5117417;27;20039;-73
2023/11/30 03:31:56;;;;;;;0.85;0.52;;;0.50;92.60;;;;;;5133033;27;20474;-73
2023/11/30 03:34:23;;;;;;;0.73;0.57;;;0.50;92.60;;;;;;5114131;28;20047;-73
2023/11/30 03:36:48;;;;;;;0.57;0.57;;;0.50;92.60;;;;;;5097179;27;20049;-73
2023/11/30 03:39:14;;;;;;;0.60;0.50;;;0.60;92.60;;;;;;5132353;27;20039;-74
2023/11/30 03:41:40;;;;;;;1.05;0.68;;;0.50;92.60;;;;;;5132269;27;20043;-73
2023/11/30 03:44:06;;;;;;;0.75;0.60;;;0.50;92.60;;;;;;5114714;28;20043;-73
2023/11/30 03:46:31;;;;;;;1.02;0.82;;;0.50;92.60;;;;;;5113994;27;20096;-74
2023/11/30 03:48:57;;;;;;;0.65;0.57;;;0.50;92.60;;;;;;5110480;28;20445;-73
2023/11/30 03:51:23;;;;;;;0.60;0.50;;;0.50;92.70;;;;;;5110520;28;20031;-73
2023/11/30 03:53:49;;;;;;;1.30;0.98;;;0.50;92.70;;;;;;5114095;28;20077;-73
2023/11/30 03:56:15;;;;;;;0.80;0.60;;;0.40;92.70;;;;;;5116217;27;20040;-73
2023/11/30 03:58:41;;;;;;;1.15;0.75;;;0.40;92.70;;;;;;5100180;27;20038;-73
2023/11/30 04:01:07;;;;;;;1.02;0.70;;;0.50;92.80;;;;;;5117617;27;20027;-73
2023/11/30 04:03:33;;;;;;;1.08;0.63;;;0.40;92.80;;;;;;5135542;27;20043;-73
2023/11/30 04:05:58;;;;;;;0.90;0.73;;;0.40;92.80;;;;;;5113943;28;20131;-73
2023/11/30 04:08:24;;;;;;;0.63;0.60;;;0.40;92.80;;;;;;5122659;27;20036;-73
2023/11/30 04:10:50;;;;;;;1.17;0.70;;;0.40;92.80;;;;;;5135552;27;20043;-73
2023/11/30 04:13:16;;;;;;;1.02;0.65;;;0.40;92.80;;;;;;5117014;27;20046;-73
2023/11/30 04:15:42;;;;;;;1.38;0.70;;;0.40;92.80;;;;;;5136204;27;20039;-73
2023/11/30 04:18:08;;;;;;;0.80;0.60;;;0.40;92.80;;;;;;5135578;27;20050;-73
2023/11/30 04:20:34;;;;;;;0.98;0.65;;;0.40;92.80;;;;;;5135543;27;20039;-73
2023/11/30 04:23:00;;;;;;;0.75;0.57;;;0.40;92.80;;;;;;5100499;27;20039;-73
2023/11/30 04:25:26;;;;;;;0.95;0.60;;;0.40;92.80;;;;;;5100789;27;20031;-73
2023/11/30 04:27:53;;;;;;;0.73;0.57;;;0.40;92.80;;;;;;5135183;27;20458;-73
2023/11/30 04:30:18;;;;;;;0.95;0.70;;;0.40;92.80;;;;;;5117316;27;20042;-73
2023/11/30 04:32:44;;;;;;;0.65;0.50;;;0.40;92.80;;;;;;5135297;27;20043;-73
2023/11/30 04:35:09;;;;;;;0.90;0.60;;;0.30;92.80;;;;;;5117362;27;20508;-73
2023/11/30 04:37:35;;;;;;;0.70;0.68;;;0.40;92.90;;;;;;5135432;27;20066;-73
2023/11/30 04:40:01;;;;;;;1.05;0.70;;;0.40;92.90;;;;;;5116724;27;20126;-73
2023/11/30 04:42:26;;;;;;;0.80;0.50;;;0.40;92.90;;;;;;5116506;27;20070;-73
2023/11/30 04:44:55;;;;;;;0.50;0.50;;;0.40;92.90;;;;;;5134927;27;20395;-73
2023/11/30 04:47:22;;;;;;;0.63;0.63;;;0.40;92.90;;;;;;5134950;27;20460;-73
2023/11/30 04:49:47;;;;;;;0.80;0.57;;;0.40;92.90;;;;;;5116787;28;20035;-73
2023/11/30 04:52:13;;;;;;;0.52;0.52;;;0.40;92.90;;;;;;5113264;28;20031;-73
2023/11/30 04:54:39;;;;;;;0.88;0.70;;;0.40;92.90;;;;;;5096000;28;20487;-73
2023/11/30 04:57:05;;;;;;;0.60;0.60;;;0.40;92.90;;;;;;5112919;28;20556;-73
2023/11/30 04:59:30;;;;;;;1.38;0.80;;;0.40;92.90;;;;;;5113564;28;20176;-73
2023/11/30 05:01:56;;;;;;;1.10;0.60;;;0.40;92.90;;;;;;5134589;27;20058;-74
2023/11/30 05:04:22;;;;;;;1.05;0.60;;;0.30;92.90;;;;;;5134619;27;20038;-73
2023/11/30 05:06:47;;;;;;;0.95;0.60;;;0.30;92.90;;;;;;5116681;27;20045;-73
2023/11/30 05:09:13;;;;;;;0.70;0.50;;;0.30;92.90;;;;;;5134733;27;20478;-73
2023/11/30 05:11:39;;;;;;;1.23;0.73;;;0.30;92.90;;;;;;5116332;27;20092;-73
2023/11/30 05:14:05;;;;;;;1.40;0.85;;;0.30;93.00;;;;;;5135278;27;20034;-74
2023/11/30 05:16:30;;;;;;;1.38;0.82;;;0.30;93.00;;;;;;5134513;27;20524;-75
2023/11/30 05:18:56;;;;;;;1.48;0.90;;;0.30;92.90;;;;;;5117140;27;20038;-73
2023/11/30 05:21:22;;;;;;;1.33;0.80;;;0.30;93.00;;;;;;5134417;27;20551;-73
2023/11/30 05:23:48;;;;;;;1.50;0.80;;;0.30;93.00;;;;;;5134443;27;20035;-74
2023/11/30 05:26:13;;;;;;;1.33;0.80;;;0.30;93.00;;;;;;5116098;27;20084;-74
2023/11/30 05:28:40;;;;;;;1.05;0.70;;;0.30;93.00;;;;;;5134331;27;20485;-74
2023/11/30 05:31:06;;;;;;;1.15;0.68;;;0.30;93.00;;;;;;5112686;28;20040;-73
2023/11/30 05:33:31;;;;;;;1.23;0.70;;;0.30;93.00;;;;;;5112275;28;20092;-74
2023/11/30 05:35:57;;;;;;;2.20;0.95;;;0.30;93.00;;;;;;5112538;28;20043;-74
2023/11/30 05:38:27;;;;;;;0.90;0.60;;;0.30;93.00;;;;;;5095603;28;20035;-73
2023/11/30 05:40:56;;;;;;;1.45;0.80;;;0.30;93.00;;;;;;5095733;28;20505;-74
2023/11/30 05:43:21;;;;;;;1.15;0.80;;;0.40;93.00;;;;;;5033952;28;20044;-74
2023/11/30 05:45:47;;;;;;;1.15;0.80;;;0.30;92.90;;;;;;5017728;28;20370;-73
2023/11/30 05:48:13;;;;;;;1.17;0.73;;;0.30;92.90;;;;;;5034100;28;20077;-74
2023/11/30 05:50:38;;;;;;;1.80;0.93;;;0.40;92.90;;;;;;5034468;28;20045;-74
2023/11/30 05:53:05;;;;;;;1.95;0.80;;;0.20;92.90;;;;;;5034366;28;20044;-74
2023/11/30 05:55:31;;;;;;;1.90;0.98;;;0.30;92.90;;;;;;5034123;28;20072;-74
2023/11/30 05:57:56;;;;;;;1.63;0.90;;;0.40;92.90;;;;;;5034291;28;20079;-74
2023/11/30 06:00:23;;;;;;;1.95;1.00;;;0.40;93.00;;;;;;5051238;28;20044;-74
2023/11/30 06:02:49;;;;;;;1.50;0.90;;;0.40;93.00;;;;;;5010724;28;20053;-74
2023/11/30 06:05:16;;;;;;;1.55;0.90;;;0.40;92.90;;;;;;4994393;28;20044;-74
2023/11/30 06:07:44;;;;;;;1.77;1.00;;;0.40;92.90;;;;;;5010972;28;20040;-73
2023/11/30 06:10:10;;;;;;;1.60;0.80;;;0.40;92.90;;;;;;5011554;28;20041;-73
2023/11/30 06:12:37;;;;;;;1.83;0.85;;;0.40;92.90;;;;;;5010893;28;20391;-74
2023/11/30 06:15:04;;;;;;;1.30;0.90;;;0.40;92.90;;;;;;5042582;28;20049;-73
2023/11/30 06:17:29;;;;;;;1.50;0.95;;;0.40;92.90;;;;;;5033215;28;20044;-75
2023/11/30 06:19:55;;;;;;;0.82;0.60;;;0.40;92.90;;;;;;5057610;28;20397;-74
2023/11/30 06:22:21;;;;;;;1.00;0.57;;;0.40;92.90;;;;;;5073711;28;20048;-74
2023/11/30 06:24:46;;;;;;;0.82;0.60;;;0.40;92.90;;;;;;5090504;28;20036;-74
2023/11/30 06:27:12;;;;;;;1.27;0.80;;;0.40;92.90;;;;;;5091171;28;20039;-74
2023/11/30 06:29:38;;;;;;;1.88;0.63;;;0.50;92.90;;;;;;5073674;28;20036;-73
2023/11/30 06:32:04;;;;;;;2.17;1.02;;;0.50;92.90;;;;;;5090490;28;20052;-74
2023/11/30 06:34:30;;;;;;;1.40;0.70;;;0.60;92.90;;;;;;5123543;27;20422;-73
2023/11/30 06:36:55;;;;;;;1.80;0.77;;;0.50;92.90;;;;;;5133953;27;20137;-73
2023/11/30 06:39:22;;;;;;;1.15;0.70;;;0.60;92.90;;;;;;5115581;27;20049;-74
2023/11/30 06:41:48;;;;;;;1.88;1.02;;;0.60;92.80;;;;;;5115361;27;20070;-76
2023/11/30 06:44:14;;;;;;;0.98;0.60;;;0.60;92.80;;;;;;5095067;28;20043;-75
2023/11/30 06:46:43;;;;;;;2.03;0.90;;;0.60;92.80;;;;;;5111581;28;20027;-76
2023/11/30 06:49:09;;;;;;;1.33;0.77;;;0.70;92.90;;;;;;5117747;27;20122;-74
2023/11/30 06:51:35;;;;;;;1.63;0.95;;;0.70;92.80;;;;;;5114815;27;20411;-74
2023/11/30 06:54:02;;;;;;;1.85;0.90;;;0.70;92.80;;;;;;5097936;28;20043;-74
2023/11/30 06:56:28;;;;;;;1.42;0.93;;;0.70;92.80;;;;;;5111458;28;20126;-74
2023/11/30 06:58:57;;;;;;;1.48;0.80;;;0.80;92.80;;;;;;5115248;27;20131;-74
2023/11/30 07:01:25;;;;;;;1.42;0.82;;;0.80;92.80;;;;;;5132941;27;20938;-74
2023/11/30 07:03:51;;;;;;;1.83;1.00;;;0.80;92.80;;;;;;5132724;27;20051;-73
2023/11/30 07:06:17;;;;;;;2.05;1.00;;;0.90;92.80;;;;;;5133063;27;20039;-74
2023/11/30 07:08:43;;;;;;;1.88;1.05;;;0.80;92.70;;;;;;5133080;27;20043;-73
2023/11/30 07:11:14;;;;;;;1.90;1.05;;;1.00;92.80;;;;;;5097769;27;20445;-73
2023/11/30 07:13:40;;;;;;;0.77;0.73;;;0.90;92.70;;;;;;5132924;27;20058;-74
2023/11/30 07:16:07;;;;;;;1.85;1.05;;;0.90;92.70;;;;;;5114659;27;20087;-74
2023/11/30 07:18:33;;;;;;;1.55;1.20;;;0.90;92.80;;;;;;5111013;28;20069;-74
2023/11/30 07:20:59;;;;;;;1.58;1.05;;;0.90;92.70;;;;;;5112124;28;20059;-73
2023/11/30 07:23:25;;;;;;;1.40;1.00;;;0.90;92.70;;;;;;5129417;27;20130;-74
2023/11/30 07:25:50;;;;;;;1.30;0.85;;;0.90;92.70;;;;;;5132644;27;20061;-74
2023/11/30 07:28:16;;;;;;;1.60;1.10;;;0.90;92.80;;;;;;5117373;27;20039;-73
2023/11/30 07:30:42;;;;;;;2.40;1.08;;;0.90;92.80;;;;;;5136061;27;20055;-73
2023/11/30 07:33:09;;;;;;;1.63;0.73;;;1.00;92.80;;;;;;5100847;28;20391;-73
2023/11/30 07:35:37;;;;;;;1.58;0.88;;;1.00;92.70;;;;;;5116405;28;20048;-74
2023/11/30 07:38:04;;;;;;;0.85;0.57;;;1.00;92.70;;;;;;5114426;28;20035;-73
2023/11/30 07:40:32;;;;;;;1.52;0.95;;;1.10;92.80;;;;;;5114275;28;20398;-73
2023/11/30 07:42:58;;;;;;;1.50;0.90;;;1.00;92.80;;;;;;5126794;27;20073;-74
2023/11/30 07:45:24;;;;;;;1.33;0.93;;;1.00;92.80;;;;;;5135973;27;20042;-74
2023/11/30 07:47:50;;;;;;;1.58;0.93;;;1.10;92.80;;;;;;5114339;28;20403;-73
2023/11/30 07:50:16;;;;;;;1.73;1.00;;;1.10;92.80;;;;;;5114060;28;20071;-73
2023/11/30 07:52:42;;;;;;;2.08;1.10;;;1.10;92.80;;;;;;5114586;28;20069;-74
2023/11/30 07:55:10;;;;;;;1.45;0.70;;;1.10;92.80;;;;;;5135615;27;20043;-73
2023/11/30 07:57:36;;;;;;;1.77;0.95;;;1.10;92.80;;;;;;5118011;28;20043;-73
2023/11/30 08:00:06;;;;;;;2.00;0.95;;;1.10;92.80;;;;;;5135734;27;20534;-74
2023/11/30 08:02:34;;;;;;;1.17;0.85;;;1.20;92.80;;;;;;5135855;27;20081;-73
2023/11/30 08:05:00;;;;;;;1.27;0.90;;;1.10;92.80;;;;;;5113909;28;20035;-73
2023/11/30 08:07:25;;;;;;;1.45;0.80;;;1.10;93.10;;;;;;5097186;28;20031;-73
2023/11/30 08:09:52;;;;;;;1.77;1.08;;;1.20;92.80;;;;;;5119239;27;20046;-73
2023/11/30 08:12:18;;;;;;;2.05;1.08;;;1.20;92.80;;;;;;5136253;27;20051;-73
2023/11/30 08:14:44;;;;;;;1.55;1.10;;;1.20;92.80;;;;;;5097444;28;20047;-74
2023/11/30 08:17:10;;;;;;;1.65;1.10;;;1.20;92.80;;;;;;5117414;27;20054;-73
2023/11/30 08:19:36;;;;;;;2.45;1.23;;;1.20;92.80;;;;;;5135929;27;20566;-74
2023/11/30 08:22:01;;;;;;;3.08;1.55;;;1.20;92.80;;;;;;5116801;27;20138;-74
2023/11/30 08:24:28;;;;;;;2.88;1.60;;;1.20;92.80;;;;;;5117125;28;20043;-73
2023/11/30 08:26:54;;;;;;;2.25;1.13;;;1.20;92.80;;;;;;5136119;27;20450;-73
2023/11/30 08:29:20;;;;;;;2.80;1.35;;;1.20;92.80;;;;;;5135466;27;20037;-73
2023/11/30 08:31:45;;;;;;;2.42;1.25;;;1.20;92.80;;;;;;5096642;28;20043;-73
2023/11/30 08:34:11;;;;;;;2.38;1.23;;;1.20;92.80;;;;;;5113523;28;20051;-73
2023/11/30 08:36:37;;;;;;;1.77;1.10;;;1.20;92.80;;;;;;5097478;27;20039;-73
2023/11/30 08:39:03;;;;;;;1.92;1.15;;;1.30;92.80;;;;;;5115617;27;20126;-74
2023/11/30 08:41:30;;;;;;;1.98;1.10;;;1.30;92.80;;;;;;5116963;28;20054;-73
2023/11/30 08:43:56;;;;;;;1.40;1.00;;;1.20;92.80;;;;;;5135188;27;20437;-74
2023/11/30 08:46:22;;;;;;;3.35;1.60;;;1.30;92.90;;;;;;5099728;27;20062;-73
2023/11/30 08:48:48;;;;;;;2.03;1.20;;;1.30;92.90;;;;;;5117309;27;20474;-74
2023/11/30 08:51:14;;;;;;;2.30;1.13;;;1.30;92.90;;;;;;5113305;28;20052;-73
2023/11/30 08:53:40;;;;;;;2.20;1.42;;;1.40;92.90;;;;;;5132734;27;20099;-73
2023/11/30 08:56:06;;;;;;;1.63;1.00;;;1.40;92.80;;;;;;5135559;27;20043;-73
2023/11/30 08:58:32;;;;;;;2.15;1.08;;;1.40;92.80;;;;;;5099600;27;20042;-73
2023/11/30 09:00:58;;;;;;;1.90;1.10;;;1.40;92.90;;;;;;5134868;27;20031;-73
2023/11/30 09:03:26;;;;;;;2.33;1.00;;;1.40;92.80;;;;;;5134587;27;20435;-73
2023/11/30 09:05:52;;;;;;;1.92;1.27;;;1.50;92.80;;;;;;5116391;27;20047;-73
2023/11/30 09:08:18;;;;;;;1.10;0.90;;;1.50;92.80;;;;;;5112757;28;20406;-73
2023/11/30 09:10:43;;;;;;;2.03;1.00;;;1.50;93.10;;;;;;5095992;28;20089;-74
2023/11/30 09:13:09;;;;;;;2.42;1.23;;;1.60;92.80;;;;;;5131967;27;20131;-73
2023/11/30 09:15:36;;;;;;;1.70;1.00;;;1.60;92.80;;;;;;5134674;27;20035;-73
2023/11/30 09:18:03;;;;;;;2.45;1.40;;;1.60;92.90;;;;;;5134731;27;20043;-73
2023/11/30 09:20:29;;;;;;;2.95;1.30;;;1.60;92.80;;;;;;5134677;27;20046;-73
2023/11/30 09:22:55;;;;;;;2.72;1.45;;;1.70;92.80;;;;;;5115762;27;20040;-73
2023/11/30 09:25:21;;;;;;;2.10;1.25;;;1.70;92.70;;;;;;5134674;27;20058;-73
2023/11/30 09:27:47;;;;;;;2.45;1.30;;;1.70;92.70;;;;;;5134603;27;20490;-73
2023/11/30 09:30:13;;;;;;;2.45;1.48;;;1.70;92.70;;;;;;5082229;27;20042;-73
2023/11/30 09:32:39;;;;;;;2.70;1.15;;;1.70;92.70;;;;;;5134297;27;20054;-73
2023/11/30 09:35:05;;;;;;;2.40;1.30;;;1.70;92.70;;;;;;5134655;27;20416;-73
2023/11/30 09:37:32;;;;;;;2.13;1.13;;;1.80;92.70;;;;;;5112588;28;20089;-74
2023/11/30 09:39:58;;;;;;;3.13;1.52;;;1.80;92.70;;;;;;5078940;28;20043;-73
2023/11/30 09:42:29;;;;;;;1.40;1.00;;;1.80;92.70;;;;;;5112779;27;20044;-73
2023/11/30 09:44:58;;;;;;;2.45;1.38;;;1.80;92.80;;;;;;5115637;27;20039;-73
2023/11/30 09:47:24;;;;;;;1.90;1.30;;;1.90;92.80;;;;;;5134108;27;20035;-73
2023/11/30 09:49:50;;;;;;;1.92;1.00;;;2.00;92.70;;;;;;5133810;27;20035;-73
2023/11/30 09:52:16;;;;;;;2.53;1.40;;;1.90;92.70;;;;;;5134174;27;20099;-73
2023/11/30 09:54:42;;;;;;;2.25;1.20;;;2.00;92.70;;;;;;5115642;27;20051;-73
2023/11/30 09:57:08;;;;;;;2.00;1.15;;;1.90;92.60;;;;;;5111867;28;20050;-73
2023/11/30 09:59:34;;;;;;;2.67;1.40;;;2.00;92.70;;;;;;5121563;27;20487;-73
2023/11/30 10:01:59;;;;;;;2.80;1.40;;;1.90;92.70;;;;;;5133363;27;20043;-73
2023/11/30 10:04:25;;;;;;;3.35;1.55;;;2.00;92.80;;;;;;5098199;28;20039;-75
2023/11/30 10:06:55;;;;;;;2.38;1.20;;;2.00;92.80;;;;;;5134260;27;20071;-74
2023/11/30 10:09:23;;;;;;;2.53;1.38;;;2.00;92.70;;;;;;5053826;28;20082;-74
2023/11/30 10:11:49;;;;;;;1.77;1.20;;;2.10;92.70;;;;;;5053278;28;20060;-73
2023/11/30 10:14:17;;;;;;;2.03;1.10;;;2.00;92.70;;;;;;5054214;28;20485;-74
2023/11/30 10:16:43;;;;;;;4.28;1.80;;;2.10;92.70;;;;;;5070530;28;20044;-74
2023/11/30 10:19:10;;;;;;;2.38;1.30;;;2.20;92.70;;;;;;5070747;28;20511;-74
2023/11/30 10:21:37;;;;;;;2.40;1.05;;;2.20;92.70;;;;;;5070581;28;20029;-74
2023/11/30 10:24:04;;;;;;;2.58;1.40;;;2.20;92.70;;;;;;5070591;28;20094;-74
2023/11/30 10:26:33;;;;;;;3.53;1.63;;;2.30;92.70;;;;;;5070415;28;20044;-74
2023/11/30 10:29:02;;;;;;;2.95;1.40;;;2.30;92.60;;;;;;5053954;28;20454;-74
2023/11/30 10:31:28;;;;;;;2.72;1.50;;;2.30;92.60;;;;;;5070479;28;20048;-74
2023/11/30 10:34:07;;;;;;;3.33;1.60;;;2.30;92.60;;;;;;5053773;28;20408;-74
2023/11/30 10:36:33;;;;;;;3.10;1.52;;;2.30;92.60;;;;;;5053254;28;20048;-74
2023/11/30 10:39:07;;;;;;;2.80;1.55;;;2.40;92.60;;;;;;5070418;28;20045;-74
2023/11/30 10:41:49;;;;;;;2.35;1.45;;;2.30;92.60;;;;;;5078277;28;20500;-74
2023/11/30 10:44:16;;;;;;;;;;;2.30;92.60;;;;;;5096247;28;20043;-75
2023/11/30 10:46:46;;;;;;;2.47;1.45;;;2.30;92.60;;;;;;5113285;28;19919;-74
2023/11/30 10:49:12;;;;;;;2.92;1.33;;;2.30;92.60;;;;;;5129671;27;20031;-74
2023/11/30 10:51:38;;;;;;;2.60;1.20;;;2.30;92.60;;;;;;5111580;28;20038;-74
2023/11/30 10:54:16;;;;;;;3.55;1.52;;;2.30;92.70;;;;;;5111482;28;20040;-74
2023/11/30 10:56:42;;;;;;;2.30;1.17;;;2.40;92.70;;;;;;5094297;28;20054;-74
2023/11/30 10:59:15;;;;;;;2.08;1.17;;;2.40;92.70;;;;;;5111675;28;20491;-74
2023/11/30 11:01:45;;;;;;;2.42;1.30;;;2.40;92.70;;;;;;5127000;27;20490;-74
2023/11/30 11:04:14;;;;;;;2.45;1.40;;;2.40;92.70;;;;;;5136859;27;20043;-74
2023/11/30 11:06:39;;;;;;;2.63;1.23;;;2.40;92.70;;;;;;5101505;27;20516;-74
2023/11/30 11:09:08;;;;;;;2.85;1.50;;;2.40;92.70;;;;;;5137305;27;20117;-74
2023/11/30 11:11:38;;;;;;;3.17;1.60;;;2.50;92.70;;;;;;5118432;28;20036;-74
2023/11/30 11:14:04;;;;;;;4.57;2.00;;;2.50;92.70;;;;;;5118421;27;20100;-74
2023/11/30 11:16:41;;;;;;;4.22;2.00;;;2.50;92.70;;;;;;5136401;27;20039;-74
2023/11/30 11:19:08;;;;;;;3.83;1.75;;;2.50;92.70;;;;;;5082171;28;20044;-74
2023/11/30 11:21:36;;;;;;;3.22;1.50;;;2.60;92.70;;;;;;5114748;28;20048;-74
2023/11/30 11:24:04;;;;;;;3.22;1.67;;;2.60;92.60;;;;;;5115819;28;20452;-75
2023/11/30 11:26:44;;;;;;;4.03;1.75;;;2.70;92.60;;;;;;5114701;28;20064;-75
2023/11/30 11:29:13;;;;;;;3.75;1.65;;;2.70;92.60;;;;;;5097696;28;20035;-75
2023/11/30 11:31:41;;;;;;;2.85;1.52;;;2.70;92.60;;;;;;5114986;28;20063;-75
2023/11/30 11:34:07;;;;;;;4.00;2.00;;;2.80;92.70;;;;;;5135979;27;20027;-75
2023/11/30 11:36:36;;;;;;;3.50;1.88;;;2.80;92.60;;;;;;5114705;28;20123;-75
2023/11/30 11:39:03;;;;;;;3.33;1.58;;;2.90;92.60;;;;;;5080757;28;20491;-75
2023/11/30 11:41:29;;;;;;;3.65;1.80;;;2.90;92.60;;;;;;5114981;28;20039;-75
2023/11/30 11:43:55;;;;;;;3.58;1.80;;;2.90;92.60;;;;;;5097321;28;20043;-75
2023/11/30 11:46:21;;;;;;;5.70;2.55;;;2.90;92.50;;;;;;5114464;28;20086;-75
2023/11/30 11:48:48;;;;;;;5.05;2.33;;;3.00;92.60;;;;;;5115718;28;20035;-75
2023/11/30 11:51:14;;;;;;;5.00;2.40;;;3.00;92.50;;;;;;5097050;28;20612;-76
2023/11/30 11:53:40;;;;;;;3.33;1.65;;;3.00;92.50;;;;;;5115683;28;20061;-75
2023/11/30 11:56:07;;;;;;;5.03;2.55;;;2.90;92.50;;;;;;5099460;27;20037;-75
2023/11/30 11:58:35;;;;;;;4.60;2.22;;;2.90;92.50;;;;;;5098961;27;20480;-75
2023/11/30 12:01:01;;;;;;;5.07;2.50;;;2.90;92.60;;;;;;5114154;28;20112;-75
2023/11/30 12:03:27;;;;;;;5.40;2.50;;;2.90;92.60;;;;;;5126464;27;20137;-75
2023/11/30 12:05:53;;;;;;;6.90;2.63;;;2.90;92.60;;;;;;5100423;27;20129;-75
2023/11/30 12:08:35;;;;;;;4.32;2.40;;;2.90;92.60;;;;;;5117684;28;20031;-75
2023/11/30 12:11:00;;;;;;;;;;;2.80;92.60;;;;;;5118664;27;20528;-75
2023/11/30 12:13:26;;;;;;;5.07;2.42;;;2.80;92.70;;;;;;5135408;27;20005;-76
2023/11/30 12:15:53;;;;;;;5.13;2.30;;;2.80;92.60;;;;;;5135640;27;20047;-75
2023/11/30 12:18:19;;;;;;;5.18;2.33;;;2.90;92.70;;;;;;5079661;27;20094;-75
2023/11/30 12:20:45;;;;;;;4.40;2.20;;;2.80;92.60;;;;;;5116274;27;20047;-75
2023/11/30 12:23:12;;;;;;;4.88;2.08;;;2.90;93.00;;;;;;5135362;27;20044;-75
2023/11/30 12:25:38;;;;;;;4.25;2.28;;;2.90;92.70;;;;;;5100149;27;20046;-75
2023/11/30 12:28:04;;;;;;;6.05;2.45;;;2.90;92.70;;;;;;5135227;27;20039;-76
2023/11/30 12:30:30;;;;;;;5.35;2.45;;;2.90;92.70;;;;;;5116931;27;20126;-75
2023/11/30 12:32:56;;;;;;;4.95;2.25;;;3.00;92.70;;;;;;5113631;28;20071;-75
2023/11/30 12:35:22;;;;;;;3.85;1.92;;;3.00;92.70;;;;;;5113488;28;20044;-75
2023/11/30 12:37:49;;;;;;;3.55;1.83;;;2.90;92.60;;;;;;5113534;28;20047;-75
2023/11/30 12:40:14;;;;;;;4.80;2.15;;;3.00;92.70;;;;;;5099032;27;20039;-75
2023/11/30 12:42:41;;;;;;;4.57;2.10;;;3.10;92.70;;;;;;5117022;27;20054;-76
2023/11/30 12:45:08;;;;;;;5.68;2.40;;;3.10;92.70;;;;;;5099954;27;20118;-75
2023/11/30 12:47:33;;;;;;;4.75;2.30;;;3.10;92.70;;;;;;5116630;28;20035;-75
2023/11/30 12:49:59;;;;;;;6.22;2.28;;;3.10;92.70;;;;;;5135095;27;20509;-76
2023/11/30 12:52:26;;;;;;;4.63;2.30;;;3.10;92.70;;;;;;5116846;28;20107;-75